TimePST,TemperatureF,Dew PointF,Humidity,Sea Level PressureIn,VisibilityMPH,Wind Direction,Wind SpeedMPH,Gust SpeedMPH,PrecipitationIn,Events,Conditions,WindDirDegrees,DateUTC
12:53 AM,17.1,8.1,68,30.09,10.0,WSW,3.5,-,N/A,,Clear,240,2013-02-10 08:53:00
1:53 AM,15.1,7.0,70,30.09,10.0,SSW,4.6,-,N/A,,Clear,210,2013-02-10 09:53:00
2:53 AM,15.1,8.1,74,30.08,10.0,SW,3.5,-,N/A,,Clear,220,2013-02-10 10:53:00
3:53 AM,14.0,8.1,77,30.07,10.0,Calm,Calm,-,N/A,,Clear,0,2013-02-10 11:53:00
5:53 AM,10.9,6.1,81,30.13,10.0,Calm,Calm,-,N/A,,Clear,0,2013-02-10 13:53:00
6:53 AM,10.9,5.0,77,30.14,10.0,Calm,Calm,-,N/A,,Clear,0,2013-02-10 14:53:00
7:53 AM,10.9,5.0,77,30.16,10.0,South,3.5,-,N/A,,Clear,190,2013-02-10 15:53:00
8:53 AM,19.9,10.9,68,30.12,10.0,South,3.5,-,N/A,,Clear,180,2013-02-10 16:53:00
9:53 AM,33.1,12.9,43,30.05,10.0,NNE,10.4,17.3,N/A,,Clear,20,2013-02-10 17:53:00
10:53 AM,33.1,14.0,46,30.07,10.0,North,8.1,17.3,N/A,,Clear,10,2013-02-10 18:53:00
11:53 AM,32.0,15.1,50,30.08,10.0,NNE,13.8,20.7,N/A,,Clear,30,2013-02-10 19:53:00
12:53 PM,33.1,14.0,46,30.05,10.0,NNE,12.7,23.0,N/A,,Clear,20,2013-02-10 20:53:00
1:53 PM,35.1,12.0,39,30.04,10.0,NNE,12.7,19.6,N/A,,Clear,20,2013-02-10 21:53:00
2:53 PM,34.0,10.9,38,30.05,10.0,North,10.4,23.0,N/A,,Clear,10,2013-02-10 22:53:00
3:53 PM,33.1,10.9,40,30.07,10.0,North,9.2,21.9,N/A,,Clear,360,2013-02-10 23:53:00
4:53 PM,30.9,12.9,47,30.09,10.0,North,9.2,16.1,N/A,,Partly Cloudy,10,2013-02-11 00:53:00
5:53 PM,30.0,12.0,47,30.11,10.0,NNE,8.1,-,N/A,,Clear,20,2013-02-11 01:53:00
6:53 PM,28.9,10.9,47,30.13,10.0,NNE,11.5,17.3,N/A,,Clear,20,2013-02-11 02:53:00
7:53 PM,28.9,10.0,45,30.14,10.0,NNE,10.4,18.4,N/A,,Clear,20,2013-02-11 03:53:00
8:53 PM,28.0,10.0,47,30.11,10.0,Variable,5.8,-,N/A,,Clear,0,2013-02-11 04:53:00
9:53 PM,27.0,9.0,47,30.06,10.0,Variable,3.5,-,N/A,,Clear,0,2013-02-11 05:53:00
10:53 PM,26.1,9.0,49,30.05,10.0,Variable,4.6,-,N/A,,Clear,0,2013-02-11 06:53:00
11:53 PM,26.1,9.0,49,30.07,10.0,Variable,5.8,-,N/A,,Clear,0,2013-02-11 07:53:00